createdAt,value
2019-06-08T00:02:29.257Z,69.03
2019-06-08T00:04:59.167Z,69.72
2019-06-08T00:07:29.150Z,69.02
2019-06-08T00:09:59.156Z,69.04
2019-06-08T00:12:29.146Z,69.33
2019-06-08T00:14:59.256Z,69.61
2019-06-08T00:17:38.190Z,70.13
2019-06-08T00:20:00.704Z,70.18
2019-06-08T00:22:30.584Z,70.21
2019-06-08T00:25:00.592Z,70.69
2019-06-08T00:27:30.495Z,70.90
2019-06-08T00:30:00.844Z,70.87
2019-06-08T00:32:30.859Z,70.74
2019-06-08T00:35:00.715Z,70.45
2019-06-08T00:37:30.724Z,71.22
2019-06-08T00:40:00.598Z,70.77
2019-06-08T00:42:30.494Z,71.03
2019-06-08T00:45:00.516Z,70.58
2019-06-08T00:47:46.582Z,70.74
2019-06-08T00:50:02.044Z,70.35
2019-06-08T00:52:32.175Z,70.78
2019-06-08T00:55:02.391Z,70.62
2019-06-08T00:57:32.538Z,70.50
2019-06-08T01:00:10.308Z,71.33
2019-06-08T01:02:34.578Z,71.53
2019-06-08T01:05:06.275Z,71.12
2019-06-08T01:07:36.379Z,70.32
2019-06-08T01:10:09.981Z,70.00
2019-06-08T01:12:40.096Z,69.96
2019-06-08T01:15:10.660Z,69.76
2019-06-08T01:17:40.583Z,70.25
2019-06-08T01:20:11.442Z,70.39
2019-06-08T01:22:41.426Z,70.64
2019-06-08T01:25:11.791Z,70.42
2019-06-08T01:27:41.792Z,70.67
2019-06-08T01:30:12.164Z,70.41
2019-06-08T01:32:42.033Z,70.67
2019-06-08T01:35:12.155Z,70.95
2019-06-08T01:37:42.159Z,70.36
2019-06-08T01:40:12.398Z,70.20
2019-06-08T01:42:42.406Z,70.41
2019-06-08T01:45:14.565Z,70.41
2019-06-08T01:47:44.805Z,70.12
2019-06-08T01:50:14.956Z,70.53
2019-06-08T01:52:45.048Z,69.93
2019-06-08T01:55:15.075Z,69.78
2019-06-08T01:57:45.649Z,69.58
2019-06-08T02:00:29.998Z,70.02
2019-06-08T02:02:48.292Z,70.10
2019-06-08T02:05:18.871Z,69.34
2019-06-08T02:07:49.148Z,69.30
2019-06-08T02:10:21.515Z,69.91
2019-06-08T02:12:51.528Z,69.52
2019-06-08T02:15:22.045Z,69.19
2019-06-08T02:17:52.264Z,69.16
2019-06-08T02:20:23.136Z,69.14
2019-06-08T02:22:53.114Z,69.21
2019-06-08T02:25:27.554Z,69.47
2019-06-08T02:27:58.279Z,69.42
2019-06-08T02:30:36.110Z,69.74
2019-06-08T02:33:04.891Z,70.18
2019-06-08T02:35:37.608Z,69.43
2019-06-08T02:38:06.951Z,69.60
2019-06-08T02:40:38.122Z,69.72
2019-06-08T02:43:08.491Z,69.81
2019-06-08T02:45:40.377Z,70.04
2019-06-08T02:48:11.036Z,69.81
2019-06-08T02:50:54.093Z,69.25
2019-06-08T02:53:25.292Z,69.21
2019-06-08T02:55:56.252Z,69.26
2019-06-08T02:58:26.855Z,69.12
2019-06-08T03:00:57.698Z,68.88
2019-06-08T03:03:31.699Z,68.92
2019-06-08T03:06:04.214Z,69.28
2019-06-08T03:08:41.174Z,69.20
2019-06-08T03:11:10.560Z,69.30
2019-06-08T03:13:43.771Z,69.14
2019-06-08T03:16:14.894Z,69.30
2019-06-08T03:18:45.691Z,68.84
2019-06-08T03:21:16.801Z,69.19
2019-06-08T03:23:47.899Z,68.86
2019-06-08T03:26:18.330Z,68.99
2019-06-08T03:28:49.770Z,69.08
2019-06-08T03:31:20.907Z,69.00
2019-06-08T03:33:55.822Z,69.31
2019-06-08T03:36:23.991Z,69.64
2019-06-08T03:38:54.504Z,69.22
2019-06-08T03:41:25.669Z,69.28
2019-06-08T03:43:56.499Z,69.15
2019-06-08T03:46:27.476Z,69.31
2019-06-08T03:48:58.669Z,69.28
2019-06-08T03:51:29.677Z,69.31
2019-06-08T03:54:00.586Z,69.48
2019-06-08T03:56:31.793Z,69.49
2019-06-08T03:59:02.998Z,69.17
2019-06-08T04:01:33.474Z,69.04
2019-06-08T04:04:04.322Z,69.46
2019-06-08T04:06:37.511Z,69.44
2019-06-08T04:09:08.877Z,69.47
2019-06-08T04:11:40.182Z,69.32
2019-06-08T04:14:12.386Z,69.25
2019-06-08T04:16:44.571Z,68.83
2019-06-08T04:19:16.104Z,68.91
2019-06-08T04:21:46.928Z,69.19
2019-06-08T04:24:18.008Z,69.27
2019-06-08T04:26:50.594Z,69.16
2019-06-08T04:29:22.189Z,69.22
2019-06-08T04:31:53.293Z,69.36
2019-06-08T04:34:24.857Z,69.33
2019-06-08T04:36:55.334Z,69.57
2019-06-08T04:39:25.946Z,69.79
2019-06-08T04:41:56.779Z,69.79
2019-06-08T04:44:27.682Z,69.41
2019-06-08T04:46:58.821Z,69.77
2019-06-08T04:49:29.483Z,69.48
2019-06-08T04:52:00.744Z,68.87
2019-06-08T04:54:31.591Z,68.92
2019-06-08T04:57:02.729Z,69.12
2019-06-08T04:59:33.639Z,69.03
2019-06-08T05:02:04.364Z,68.31
2019-06-08T05:04:35.241Z,68.74
2019-06-08T05:07:06.158Z,68.99
2019-06-08T05:09:37.120Z,68.88
2019-06-08T05:12:08.084Z,68.99
2019-06-08T05:14:39.336Z,69.39
2019-06-08T05:17:10.368Z,67.88
2019-06-08T05:19:41.365Z,68.18
2019-06-08T05:22:12.213Z,67.81
2019-06-08T05:24:44.203Z,67.81
2019-06-08T05:27:16.608Z,68.00
2019-06-08T05:29:47.942Z,68.01
2019-06-08T05:32:19.045Z,68.21
2019-06-08T05:34:49.798Z,68.88
2019-06-08T05:37:20.766Z,67.77
2019-06-08T05:39:52.054Z,67.41
2019-06-08T05:42:23.373Z,67.07
2019-06-08T05:44:54.060Z,66.89
2019-06-08T05:47:24.787Z,65.59
2019-06-08T05:49:55.800Z,66.80
2019-06-08T05:52:26.474Z,66.22
2019-06-08T05:54:57.107Z,67.02
2019-06-08T05:57:27.721Z,64.86
2019-06-08T05:59:58.632Z,65.67
2019-06-08T06:02:29.591Z,65.37
2019-06-08T06:05:00.335Z,65.86
2019-06-08T06:07:31.332Z,66.39
2019-06-08T06:10:02.239Z,65.29
2019-06-08T06:12:32.850Z,65.24
2019-06-08T06:15:03.482Z,65.00
2019-06-08T06:17:34.056Z,65.02
2019-06-08T06:20:07.219Z,64.53
2019-06-08T06:22:37.701Z,64.76
2019-06-08T06:25:10.533Z,64.70
2019-06-08T06:27:41.430Z,65.37
2019-06-08T06:30:13.292Z,64.85
2019-06-08T06:32:45.579Z,65.31
2019-06-08T06:35:17.256Z,64.93
2019-06-08T06:37:50.157Z,65.17
2019-06-08T06:40:21.457Z,66.51
2019-06-08T06:42:52.405Z,66.22
2019-06-08T06:45:23.743Z,66.20
2019-06-08T06:47:54.705Z,66.29
2019-06-08T06:50:26.182Z,65.86
2019-06-08T06:52:56.913Z,66.11
2019-06-08T06:55:28.085Z,65.16
2019-06-08T06:57:58.958Z,64.40
2019-06-08T07:00:34.193Z,64.22
2019-06-08T07:03:05.326Z,64.10
2019-06-08T07:05:36.358Z,63.66
2019-06-08T07:08:07.360Z,63.26
2019-06-08T07:10:38.157Z,63.67
2019-06-08T07:13:09.174Z,62.80
2019-06-08T07:15:41.772Z,63.69
2019-06-08T07:18:12.768Z,63.32
2019-06-08T07:20:44.191Z,64.11
2019-06-08T07:23:15.368Z,63.44
2019-06-08T07:25:46.312Z,62.34
2019-06-08T07:28:17.443Z,63.45
2019-06-08T07:30:48.846Z,62.81
2019-06-08T07:33:19.455Z,63.09
2019-06-08T07:35:51.490Z,62.49
2019-06-08T07:38:22.816Z,63.78
2019-06-08T07:40:54.186Z,62.74
2019-06-08T07:43:26.118Z,62.66
2019-06-08T07:45:58.455Z,62.28
2019-06-08T07:48:29.187Z,61.30
2019-06-08T07:51:00.266Z,62.23
2019-06-08T07:53:31.481Z,61.96
2019-06-08T07:56:02.367Z,63.98
2019-06-08T07:58:33.150Z,61.04
2019-06-08T08:01:08.257Z,60.66
2019-06-08T08:03:37.368Z,60.15
2019-06-08T08:06:08.818Z,59.39
2019-06-08T08:08:40.126Z,58.90
2019-06-08T08:11:10.779Z,59.70
2019-06-08T08:13:41.443Z,59.70
2019-06-08T08:16:12.525Z,61.39
2019-06-08T08:18:43.902Z,59.58
2019-06-08T08:21:22.177Z,59.22
2019-06-08T08:23:47.835Z,60.32
2019-06-08T08:26:20.581Z,59.48
2019-06-08T08:28:53.494Z,60.05
2019-06-08T08:31:24.543Z,59.42
2019-06-08T08:33:58.516Z,58.46
2019-06-08T08:36:29.453Z,58.53
2019-06-08T08:39:02.451Z,58.05
2019-06-08T08:41:33.420Z,58.07
2019-06-08T08:44:04.939Z,57.72
2019-06-08T08:46:38.676Z,57.52
2019-06-08T08:49:12.911Z,57.98
2019-06-08T08:51:42.427Z,59.00
2019-06-08T08:54:13.268Z,59.65
2019-06-08T08:56:44.285Z,58.81
2019-06-08T08:59:17.614Z,57.50
2019-06-08T09:01:48.289Z,56.15
2019-06-08T09:04:19.561Z,55.46
2019-06-08T09:06:50.950Z,55.77
2019-06-08T09:09:22.817Z,53.98
2019-06-08T09:11:54.895Z,55.06
2019-06-08T09:14:28.002Z,53.62
2019-06-08T09:17:01.689Z,53.90
2019-06-08T09:19:31.409Z,53.90
2019-06-08T09:22:03.898Z,52.09
2019-06-08T09:24:34.592Z,51.13
2019-06-08T09:27:07.792Z,47.10
2019-06-08T09:29:38.795Z,48.53
2019-06-08T09:32:09.973Z,49.83
2019-06-08T09:34:41.159Z,49.20
2019-06-08T09:37:12.026Z,50.21
2019-06-08T09:39:42.702Z,49.09
2019-06-08T09:42:13.543Z,51.31
2019-06-08T09:44:44.502Z,47.83
2019-06-08T09:47:17.920Z,45.80
2019-06-08T09:49:48.138Z,48.09
2019-06-08T09:52:21.651Z,47.77
2019-06-08T09:54:54.166Z,45.89
2019-06-08T09:57:24.957Z,46.68
2019-06-08T09:59:57.214Z,46.28
2019-06-08T10:02:28.844Z,46.96
2019-06-08T10:05:02.439Z,45.61
2019-06-08T10:07:32.398Z,47.48
2019-06-08T10:10:04.778Z,46.85
2019-06-08T10:12:37.790Z,49.19
2019-06-08T10:15:10.233Z,48.29
2019-06-08T10:17:41.314Z,47.25
2019-06-08T10:20:12.060Z,43.98
2019-06-08T10:22:42.515Z,42.26
2019-06-08T10:25:13.832Z,40.88
2019-06-08T10:27:44.445Z,40.12
2019-06-08T10:30:15.269Z,39.78
2019-06-08T10:32:50.379Z,40.69
2019-06-08T10:35:20.982Z,38.92
2019-06-08T10:37:55.075Z,40.48
2019-06-08T10:40:23.784Z,42.93
2019-06-08T10:42:54.686Z,42.21
2019-06-08T10:45:25.615Z,39.14
2019-06-08T10:47:59.398Z,39.90
2019-06-08T10:50:29.190Z,40.04
2019-06-08T10:53:03.657Z,43.42
2019-06-08T10:55:33.274Z,42.93
2019-06-08T10:58:04.526Z,44.15
2019-06-08T11:00:35.570Z,43.13
2019-06-08T11:03:09.332Z,41.88
2019-06-08T11:05:39.795Z,40.85
2019-06-08T11:08:14.243Z,39.15
2019-06-08T11:10:42.576Z,40.87
2019-06-08T11:13:15.209Z,39.98
2019-06-08T11:15:48.009Z,38.07
2019-06-08T11:18:18.585Z,36.99
2019-06-08T11:20:49.436Z,37.27
2019-06-08T11:23:20.477Z,36.53
2019-06-08T11:25:51.175Z,35.77
2019-06-08T11:28:22.026Z,40.59
2019-06-08T11:30:52.659Z,42.22
2019-06-08T11:33:23.342Z,41.96
2019-06-08T11:35:53.825Z,43.04
2019-06-08T11:38:24.352Z,44.36
2019-06-08T11:40:57.499Z,45.03
2019-06-08T11:43:28.725Z,41.27
2019-06-08T11:46:00.555Z,39.09
2019-06-08T11:48:31.750Z,39.32
2019-06-08T11:51:02.643Z,41.42
2019-06-08T11:53:33.326Z,42.55
2019-06-08T11:56:09.440Z,43.28
2019-06-08T11:58:40.037Z,43.84
2019-06-08T12:01:13.714Z,41.06
2019-06-08T12:03:43.518Z,38.50
2019-06-08T12:06:14.686Z,38.59
2019-06-08T12:08:47.292Z,39.41
2019-06-08T12:11:20.919Z,38.15
2019-06-08T12:13:50.846Z,40.10
2019-06-08T12:16:22.448Z,37.68
2019-06-08T12:18:53.421Z,35.12
2019-06-08T12:21:24.457Z,36.75
2019-06-08T12:23:55.825Z,39.59
2019-06-08T12:26:26.279Z,40.17
2019-06-08T12:28:58.428Z,40.42
2019-06-08T12:31:30.458Z,39.86
2019-06-08T12:34:01.542Z,39.68
2019-06-08T12:36:32.978Z,40.82
2019-06-08T12:39:08.502Z,41.17
2019-06-08T12:41:38.308Z,42.33
2019-06-08T12:44:12.119Z,43.21
2019-06-08T12:46:42.236Z,42.89
2019-06-08T12:49:14.427Z,43.46
2019-06-08T12:51:45.847Z,43.59
2019-06-08T12:54:19.381Z,44.39
2019-06-08T12:56:49.966Z,41.47
2019-06-08T12:59:22.887Z,39.24
2019-06-08T13:01:53.397Z,35.97
2019-06-08T13:04:24.760Z,37.00
2019-06-08T13:06:55.495Z,38.27
2019-06-08T13:09:29.754Z,34.64
2019-06-08T13:11:59.447Z,35.78
2019-06-08T13:14:30.970Z,37.04
2019-06-08T13:17:01.743Z,35.29
2019-06-08T13:19:32.661Z,34.62
2019-06-08T13:22:03.543Z,33.72
2019-06-08T13:24:34.702Z,38.43
2019-06-08T13:27:05.708Z,37.82
2019-06-08T13:29:36.256Z,37.93
2019-06-08T13:32:07.835Z,35.16
2019-06-08T13:34:38.766Z,34.25
2019-06-08T13:37:10.633Z,34.96
2019-06-08T13:39:41.234Z,33.54
2019-06-08T13:42:13.188Z,33.71
2019-06-08T13:44:44.107Z,31.90
2019-06-08T13:47:16.507Z,33.12
2019-06-08T13:49:47.967Z,31.33
2019-06-08T13:52:22.153Z,33.88
2019-06-08T13:54:51.993Z,33.84
2019-06-08T13:57:24.931Z,32.88
2019-06-08T13:59:57.704Z,35.02
2019-06-08T14:02:30.979Z,32.74
2019-06-08T14:05:00.087Z,32.68
2019-06-08T14:07:34.310Z,31.69
2019-06-08T14:10:04.158Z,34.84
2019-06-08T14:12:35.016Z,33.11
2019-06-08T14:15:08.631Z,32.07
2019-06-08T14:17:39.939Z,31.43
2019-06-08T14:20:10.848Z,30.09
2019-06-08T14:22:42.051Z,31.80
2019-06-08T14:25:12.538Z,32.23
2019-06-08T14:27:43.380Z,32.61
2019-06-08T14:30:14.458Z,29.83
2019-06-08T14:32:47.788Z,32.08
2019-06-08T14:35:21.990Z,31.89
2019-06-08T14:37:50.953Z,34.74
2019-06-08T14:40:22.033Z,35.80
2019-06-08T14:42:53.044Z,35.97
2019-06-08T14:45:24.743Z,36.73
2019-06-08T14:47:55.804Z,38.40
2019-06-08T14:50:29.273Z,39.10
2019-06-08T14:52:59.265Z,40.34
2019-06-08T14:55:34.027Z,39.75
2019-06-08T14:58:03.076Z,39.21
2019-06-08T15:00:34.178Z,38.69
2019-06-08T15:03:07.517Z,36.00
2019-06-08T15:05:37.205Z,35.12
2019-06-08T15:08:08.312Z,35.08
2019-06-08T15:10:39.250Z,33.71
2019-06-08T15:13:10.047Z,34.90
2019-06-08T15:15:40.417Z,35.39
2019-06-08T15:18:11.492Z,35.09
2019-06-08T15:20:42.371Z,34.96
2019-06-08T15:23:16.735Z,34.40
2019-06-08T15:25:46.782Z,34.00
2019-06-08T15:28:18.209Z,34.16
2019-06-08T15:30:49.463Z,33.38
2019-06-08T15:33:21.499Z,33.39
2019-06-08T15:35:52.186Z,34.48
2019-06-08T15:38:23.849Z,36.04
2019-06-08T15:40:54.345Z,37.16
2019-06-08T15:43:28.241Z,38.60
2019-06-08T15:45:59.152Z,38.54
2019-06-08T15:48:31.988Z,37.92
2019-06-08T15:51:02.872Z,37.86
2019-06-08T15:53:34.214Z,38.84
2019-06-08T15:56:05.159Z,40.54
2019-06-08T15:58:40.160Z,39.18
2019-06-08T16:01:10.560Z,39.99
2019-06-08T16:03:41.195Z,39.59
2019-06-08T16:06:12.491Z,40.28
2019-06-08T16:08:43.487Z,39.38
2019-06-08T16:11:14.645Z,38.73
2019-06-08T16:13:45.787Z,39.30
2019-06-08T16:16:16.928Z,38.51
2019-06-08T16:18:48.012Z,40.03
2019-06-08T16:21:18.897Z,38.93
2019-06-08T16:23:49.979Z,40.28
2019-06-08T16:26:20.714Z,40.82
2019-06-08T16:28:51.667Z,40.71
2019-06-08T16:31:22.718Z,40.69
2019-06-08T16:33:53.542Z,41.11
2019-06-08T16:36:23.956Z,40.95
2019-06-08T16:38:55.106Z,40.89
2019-06-08T16:41:26.074Z,40.26
2019-06-08T16:43:57.293Z,40.41
2019-06-08T16:46:28.355Z,40.15
2019-06-08T16:48:59.311Z,39.21
2019-06-08T16:51:31.236Z,40.06
2019-06-08T16:54:02.435Z,39.58
2019-06-08T16:56:34.138Z,39.15
2019-06-08T16:59:05.238Z,38.17
2019-06-08T17:01:36.867Z,39.47
2019-06-08T17:04:07.648Z,38.68
2019-06-08T17:06:39.393Z,38.00
2019-06-08T17:09:10.143Z,39.66
2019-06-08T17:11:40.778Z,38.27
2019-06-08T17:14:11.135Z,38.69
2019-06-08T17:16:41.571Z,39.25
2019-06-08T17:19:12.291Z,38.85
2019-06-08T17:21:43.532Z,39.05
2019-06-08T17:24:15.074Z,38.82
2019-06-08T17:26:46.017Z,39.36
2019-06-08T17:29:16.381Z,39.42
2019-06-08T17:31:47.822Z,40.52
2019-06-08T17:34:20.723Z,40.72
2019-06-08T17:36:51.525Z,41.53
2019-06-08T17:39:22.271Z,42.15
2019-06-08T17:41:53.349Z,42.18
2019-06-08T17:44:24.436Z,41.49
2019-06-08T17:46:55.154Z,41.24
2019-06-08T17:49:25.886Z,41.66
2019-06-08T17:51:57.471Z,42.45
2019-06-08T17:54:28.524Z,43.00
2019-06-08T17:56:59.522Z,43.55
2019-06-08T17:59:30.822Z,43.22
2019-06-08T18:02:01.774Z,43.33
2019-06-08T18:04:33.501Z,44.11
2019-06-08T18:07:04.420Z,44.78
2019-06-08T18:09:38.761Z,44.90
2019-06-08T18:12:08.735Z,44.68
2019-06-08T18:14:41.956Z,45.23
2019-06-08T18:17:14.273Z,45.01
2019-06-08T18:19:47.109Z,45.34
2019-06-08T18:22:18.635Z,45.42
2019-06-08T18:24:49.672Z,46.10
2019-06-08T18:27:20.140Z,45.87
2019-06-08T18:29:50.790Z,46.99
2019-06-08T18:32:22.001Z,46.46
2019-06-08T18:34:52.440Z,45.83
2019-06-08T18:37:23.392Z,46.28
2019-06-08T18:39:54.709Z,46.42
2019-06-08T18:42:27.013Z,47.21
2019-06-08T18:44:58.389Z,46.47
2019-06-08T18:47:29.093Z,47.08
2019-06-08T18:50:00.149Z,48.07
2019-06-08T18:52:30.839Z,48.16
2019-06-08T18:55:02.313Z,48.60
2019-06-08T18:57:33.358Z,48.61
2019-06-08T19:00:08.371Z,49.16
2019-06-08T19:02:39.935Z,49.39
2019-06-08T19:05:09.723Z,49.79
2019-06-08T19:07:41.687Z,50.26
2019-06-08T19:10:14.529Z,51.14
2019-06-08T19:12:48.142Z,51.66
2019-06-08T19:15:21.861Z,52.18
2019-06-08T19:17:54.401Z,53.08
2019-06-08T19:20:25.506Z,54.06
2019-06-08T19:22:57.806Z,54.05
2019-06-08T19:25:28.393Z,54.66
2019-06-08T19:28:00.023Z,54.57
2019-06-08T19:30:30.679Z,54.94
2019-06-08T19:33:01.587Z,55.72
2019-06-08T19:35:34.567Z,56.09
2019-06-08T19:38:04.592Z,58.34
2019-06-08T19:40:37.587Z,58.94
2019-06-08T19:43:08.316Z,58.02
2019-06-08T19:45:41.846Z,61.30
2019-06-08T19:48:11.975Z,60.08
2019-06-08T19:50:42.847Z,58.71
2019-06-08T19:53:13.516Z,58.45
2019-06-08T19:55:45.215Z,58.79
2019-06-08T19:58:18.065Z,60.79
2019-06-08T20:00:53.262Z,59.43
2019-06-08T20:03:21.212Z,61.44
2019-06-08T20:05:52.081Z,62.32
2019-06-08T20:08:23.474Z,61.65
2019-06-08T20:10:53.758Z,63.54
2019-06-08T20:13:23.728Z,64.13
2019-06-08T20:15:58.317Z,63.34
2019-06-08T20:18:27.927Z,63.75
2019-06-08T20:20:58.727Z,63.72
2019-06-08T20:23:28.900Z,64.58
2019-06-08T20:26:00.854Z,65.00
2019-06-08T20:28:30.478Z,65.43
2019-06-08T20:31:01.271Z,66.36
2019-06-08T20:33:31.649Z,67.52
2019-06-08T20:36:01.531Z,68.17
2019-06-08T20:38:37.894Z,68.34
2019-06-08T20:41:03.587Z,68.58
2019-06-08T20:43:33.950Z,68.99
2019-06-08T20:46:04.297Z,68.98
2019-06-08T20:48:34.679Z,69.34
2019-06-08T20:51:04.793Z,68.79
2019-06-08T20:53:34.676Z,69.44
2019-06-08T20:56:04.673Z,69.78
2019-06-08T20:58:37.026Z,69.80
2019-06-08T21:01:07.351Z,69.39
2019-06-08T21:03:37.433Z,70.00
2019-06-08T21:06:07.765Z,69.88
2019-06-08T21:08:37.806Z,70.05
2019-06-08T21:11:08.445Z,70.43
2019-06-08T21:13:38.766Z,69.86
2019-06-08T21:16:08.766Z,70.01
2019-06-08T21:18:38.768Z,71.03
2019-06-08T21:21:08.772Z,70.79
2019-06-08T21:23:38.768Z,71.23
2019-06-08T21:26:09.125Z,70.73
2019-06-08T21:28:39.243Z,71.43
2019-06-08T21:31:09.734Z,70.50
2019-06-08T21:33:40.101Z,71.76
2019-06-08T21:36:10.123Z,71.71
2019-06-08T21:38:40.098Z,72.21
2019-06-08T21:41:10.116Z,71.82
2019-06-08T21:43:41.059Z,72.13
2019-06-08T21:46:11.190Z,72.40
2019-06-08T21:48:41.425Z,72.61
2019-06-08T21:51:11.421Z,72.58
2019-06-08T21:53:41.422Z,72.87
2019-06-08T21:56:11.421Z,72.57
2019-06-08T21:58:41.425Z,72.88
2019-06-08T22:01:12.152Z,72.89
2019-06-08T22:03:42.177Z,73.19
2019-06-08T22:06:12.151Z,73.34
2019-06-08T22:08:42.183Z,72.92
2019-06-08T22:11:12.161Z,72.51
2019-06-08T22:13:42.230Z,72.69
2019-06-08T22:16:12.398Z,72.91
2019-06-08T22:18:42.419Z,72.52
2019-06-08T22:21:12.407Z,72.59
2019-06-08T22:23:42.531Z,72.71
2019-06-08T22:26:12.533Z,73.46
2019-06-08T22:28:42.510Z,74.33
2019-06-08T22:31:12.558Z,74.47
2019-06-08T22:33:42.664Z,74.58
2019-06-08T22:36:12.786Z,74.59
2019-06-08T22:38:42.665Z,74.85
2019-06-08T22:41:12.782Z,75.51
2019-06-08T22:43:42.790Z,75.77
2019-06-08T22:46:13.500Z,76.47
2019-06-08T22:48:43.501Z,76.45
2019-06-08T22:51:13.624Z,76.79
2019-06-08T22:53:43.626Z,76.75
2019-06-08T22:56:13.513Z,76.74
2019-06-08T22:58:43.509Z,77.18
2019-06-08T23:01:13.390Z,77.08
2019-06-08T23:03:43.398Z,77.47
2019-06-08T23:06:13.402Z,78.03
2019-06-08T23:08:43.514Z,78.34
2019-06-08T23:11:13.398Z,78.81
2019-06-08T23:13:43.521Z,79.06
2019-06-08T23:16:13.519Z,79.19
2019-06-08T23:18:43.400Z,79.35
2019-06-08T23:21:13.404Z,79.72
2019-06-08T23:23:43.287Z,79.88
2019-06-08T23:26:13.290Z,80.24
2019-06-08T23:28:43.178Z,80.77
2019-06-08T23:31:21.355Z,81.12
2019-06-08T23:33:44.732Z,81.15
2019-06-08T23:36:44.962Z,81.43
2019-06-08T23:38:48.110Z,81.77
2019-06-08T23:41:18.344Z,82.48
2019-06-08T23:43:48.338Z,82.62
2019-06-08T23:46:19.194Z,82.97
2019-06-08T23:48:49.181Z,82.93
2019-06-08T23:51:19.065Z,82.65
2019-06-08T23:53:49.065Z,82.59
2019-06-08T23:56:19.197Z,82.51
2019-06-08T23:58:49.195Z,82.05
